sensor_id;sensor_type;location;lat;lon;timestamp;P1;durP1;ratioP1;P2;durP2;ratioP2
52934;SDS011;38802;50.198;19.796;2024-01-25T00:01:27;12.00;;;3.50;;
52934;SDS011;38802;50.198;19.796;2024-01-25T00:03:55;5.80;;;2.60;;
52934;SDS011;38802;50.198;19.796;2024-01-25T00:06:23;8.10;;;2.60;;
52934;SDS011;38802;50.198;19.796;2024-01-25T00:08:53;7.00;;;2.70;;
52934;SDS011;38802;50.198;19.796;2024-01-25T00:11:21;6.80;;;2.60;;
52934;SDS011;38802;50.198;19.796;2024-01-25T00:13:49;7.00;;;2.50;;
52934;SDS011;38802;50.198;19.796;2024-01-25T00:16:18;6.70;;;2.50;;
52934;SDS011;38802;50.198;19.796;2024-01-25T00:18:46;5.30;;;2.40;;
52934;SDS011;38802;50.198;19.796;2024-01-25T00:21:14;6.20;;;2.50;;
52934;SDS011;38802;50.198;19.796;2024-01-25T00:23:42;7.00;;;2.40;;
52934;SDS011;38802;50.198;19.796;2024-01-25T00:26:10;5.80;;;2.40;;
52934;SDS011;38802;50.198;19.796;2024-01-25T00:28:38;13.00;;;2.70;;
52934;SDS011;38802;50.198;19.796;2024-01-25T00:31:06;9.20;;;3.00;;
52934;SDS011;38802;50.198;19.796;2024-01-25T00:33:34;8.60;;;2.80;;
52934;SDS011;38802;50.198;19.796;2024-01-25T00:36:02;4.90;;;3.30;;
52934;SDS011;38802;50.198;19.796;2024-01-25T00:38:30;10.50;;;3.00;;
52934;SDS011;38802;50.198;19.796;2024-01-25T00:40:59;11.00;;;3.60;;
52934;SDS011;38802;50.198;19.796;2024-01-25T00:43:27;8.70;;;3.00;;
52934;SDS011;38802;50.198;19.796;2024-01-25T00:45:55;9.00;;;2.60;;
52934;SDS011;38802;50.198;19.796;2024-01-25T00:48:24;12.10;;;3.80;;
52934;SDS011;38802;50.198;19.796;2024-01-25T00:50:52;7.00;;;2.60;;
52934;SDS011;38802;50.198;19.796;2024-01-25T00:53:20;7.60;;;3.00;;
52934;SDS011;38802;50.198;19.796;2024-01-25T00:55:49;9.10;;;3.20;;
52934;SDS011;38802;50.198;19.796;2024-01-25T00:58:17;8.10;;;3.10;;
52934;SDS011;38802;50.198;19.796;2024-01-25T01:00:46;8.30;;;2.50;;
52934;SDS011;38802;50.198;19.796;2024-01-25T01:03:14;8.50;;;2.90;;
52934;SDS011;38802;50.198;19.796;2024-01-25T01:05:46;10.20;;;3.30;;
52934;SDS011;38802;50.198;19.796;2024-01-25T01:08:15;11.40;;;3.40;;
52934;SDS011;38802;50.198;19.796;2024-01-25T01:10:43;8.60;;;2.50;;
52934;SDS011;38802;50.198;19.796;2024-01-25T01:13:12;11.30;;;2.80;;
52934;SDS011;38802;50.198;19.796;2024-01-25T01:15:40;7.40;;;2.80;;
52934;SDS011;38802;50.198;19.796;2024-01-25T01:18:08;10.50;;;3.80;;
52934;SDS011;38802;50.198;19.796;2024-01-25T01:20:36;5.90;;;2.20;;
52934;SDS011;38802;50.198;19.796;2024-01-25T01:23:04;10.00;;;2.60;;
52934;SDS011;38802;50.198;19.796;2024-01-25T01:25:33;7.20;;;2.50;;
52934;SDS011;38802;50.198;19.796;2024-01-25T01:28:00;6.70;;;2.50;;
52934;SDS011;38802;50.198;19.796;2024-01-25T01:30:28;5.30;;;2.30;;
52934;SDS011;38802;50.198;19.796;2024-01-25T01:32:56;6.10;;;2.40;;
52934;SDS011;38802;50.198;19.796;2024-01-25T01:35:25;8.60;;;2.60;;
52934;SDS011;38802;50.198;19.796;2024-01-25T01:37:53;7.90;;;2.90;;
52934;SDS011;38802;50.198;19.796;2024-01-25T01:40:21;5.10;;;2.20;;
52934;SDS011;38802;50.198;19.796;2024-01-25T01:42:49;6.90;;;2.30;;
52934;SDS011;38802;50.198;19.796;2024-01-25T01:45:17;7.20;;;3.30;;
52934;SDS011;38802;50.198;19.796;2024-01-25T01:47:45;10.60;;;2.80;;
52934;SDS011;38802;50.198;19.796;2024-01-25T01:50:13;10.40;;;2.20;;
52934;SDS011;38802;50.198;19.796;2024-01-25T01:52:42;6.50;;;2.40;;
52934;SDS011;38802;50.198;19.796;2024-01-25T01:55:10;8.90;;;2.70;;
52934;SDS011;38802;50.198;19.796;2024-01-25T01:57:38;4.90;;;2.30;;
52934;SDS011;38802;50.198;19.796;2024-01-25T02:00:07;11.70;;;3.00;;
52934;SDS011;38802;50.198;19.796;2024-01-25T02:02:40;7.20;;;2.60;;
52934;SDS011;38802;50.198;19.796;2024-01-25T02:05:08;8.40;;;2.70;;
52934;SDS011;38802;50.198;19.796;2024-01-25T02:07:36;6.00;;;1.80;;
52934;SDS011;38802;50.198;19.796;2024-01-25T02:10:07;5.40;;;2.50;;
52934;SDS011;38802;50.198;19.796;2024-01-25T02:12:36;5.30;;;2.20;;
52934;SDS011;38802;50.198;19.796;2024-01-25T02:15:05;7.50;;;2.20;;
52934;SDS011;38802;50.198;19.796;2024-01-25T02:17:34;6.30;;;2.40;;
52934;SDS011;38802;50.198;19.796;2024-01-25T02:20:02;8.00;;;2.80;;
52934;SDS011;38802;50.198;19.796;2024-01-25T02:22:31;7.30;;;2.20;;
52934;SDS011;38802;50.198;19.796;2024-01-25T02:25:00;8.10;;;2.40;;
52934;SDS011;38802;50.198;19.796;2024-01-25T02:27:28;7.60;;;2.40;;
52934;SDS011;38802;50.198;19.796;2024-01-25T02:29:56;5.70;;;2.50;;
52934;SDS011;38802;50.198;19.796;2024-01-25T02:32:24;6.70;;;2.00;;
52934;SDS011;38802;50.198;19.796;2024-01-25T02:34:52;7.10;;;2.20;;
52934;SDS011;38802;50.198;19.796;2024-01-25T02:37:20;3.90;;;2.20;;
52934;SDS011;38802;50.198;19.796;2024-01-25T02:39:49;13.10;;;3.20;;
52934;SDS011;38802;50.198;19.796;2024-01-25T02:42:18;5.40;;;1.90;;
52934;SDS011;38802;50.198;19.796;2024-01-25T02:44:46;7.60;;;2.60;;
52934;SDS011;38802;50.198;19.796;2024-01-25T02:47:15;6.40;;;2.40;;
52934;SDS011;38802;50.198;19.796;2024-01-25T02:49:43;6.90;;;1.90;;
52934;SDS011;38802;50.198;19.796;2024-01-25T02:52:11;9.40;;;2.70;;
52934;SDS011;38802;50.198;19.796;2024-01-25T02:54:39;11.00;;;3.20;;
52934;SDS011;38802;50.198;19.796;2024-01-25T02:57:07;7.10;;;2.30;;
52934;SDS011;38802;50.198;19.796;2024-01-25T02:59:35;9.10;;;2.40;;
52934;SDS011;38802;50.198;19.796;2024-01-25T03:02:03;7.10;;;3.10;;
52934;SDS011;38802;50.198;19.796;2024-01-25T03:04:32;10.50;;;3.00;;
52934;SDS011;38802;50.198;19.796;2024-01-25T03:07:01;10.90;;;2.70;;
52934;SDS011;38802;50.198;19.796;2024-01-25T03:09:30;6.10;;;2.60;;
52934;SDS011;38802;50.198;19.796;2024-01-25T03:11:58;13.40;;;3.00;;
52934;SDS011;38802;50.198;19.796;2024-01-25T03:14:26;8.00;;;2.00;;
52934;SDS011;38802;50.198;19.796;2024-01-25T03:16:54;8.10;;;2.20;;
52934;SDS011;38802;50.198;19.796;2024-01-25T03:19:24;6.30;;;2.80;;
52934;SDS011;38802;50.198;19.796;2024-01-25T03:21:53;7.00;;;2.50;;
52934;SDS011;38802;50.198;19.796;2024-01-25T03:24:22;3.80;;;2.10;;
52934;SDS011;38802;50.198;19.796;2024-01-25T03:26:50;7.60;;;2.60;;
52934;SDS011;38802;50.198;19.796;2024-01-25T03:29:18;8.40;;;2.50;;
52934;SDS011;38802;50.198;19.796;2024-01-25T03:31:47;7.80;;;2.40;;
52934;SDS011;38802;50.198;19.796;2024-01-25T03:34:15;7.40;;;2.10;;
52934;SDS011;38802;50.198;19.796;2024-01-25T03:36:43;11.00;;;3.00;;
52934;SDS011;38802;50.198;19.796;2024-01-25T03:39:11;9.80;;;2.40;;
52934;SDS011;38802;50.198;19.796;2024-01-25T03:41:39;12.20;;;2.30;;
52934;SDS011;38802;50.198;19.796;2024-01-25T03:44:07;10.00;;;2.60;;
52934;SDS011;38802;50.198;19.796;2024-01-25T03:46:35;7.00;;;2.50;;
52934;SDS011;38802;50.198;19.796;2024-01-25T03:49:03;12.90;;;3.60;;
52934;SDS011;38802;50.198;19.796;2024-01-25T03:51:32;8.80;;;2.80;;
52934;SDS011;38802;50.198;19.796;2024-01-25T03:54:00;10.00;;;2.80;;
52934;SDS011;38802;50.198;19.796;2024-01-25T03:56:28;12.40;;;3.20;;
52934;SDS011;38802;50.198;19.796;2024-01-25T03:58:57;10.20;;;2.90;;
52934;SDS011;38802;50.198;19.796;2024-01-25T04:01:25;11.90;;;3.80;;
52934;SDS011;38802;50.198;19.796;2024-01-25T04:03:58;9.30;;;2.80;;
52934;SDS011;38802;50.198;19.796;2024-01-25T04:06:26;13.50;;;3.80;;
52934;SDS011;38802;50.198;19.796;2024-01-25T04:08:54;11.80;;;3.60;;
52934;SDS011;38802;50.198;19.796;2024-01-25T04:11:22;12.00;;;3.20;;
52934;SDS011;38802;50.198;19.796;2024-01-25T04:13:53;9.80;;;3.10;;
52934;SDS011;38802;50.198;19.796;2024-01-25T04:16:21;10.50;;;3.00;;
52934;SDS011;38802;50.198;19.796;2024-01-25T04:18:49;15.00;;;3.20;;
52934;SDS011;38802;50.198;19.796;2024-01-25T04:21:17;11.70;;;3.40;;
52934;SDS011;38802;50.198;19.796;2024-01-25T04:23:45;8.40;;;3.70;;
52934;SDS011;38802;50.198;19.796;2024-01-25T04:26:14;11.70;;;3.80;;
52934;SDS011;38802;50.198;19.796;2024-01-25T04:28:44;8.00;;;3.20;;
52934;SDS011;38802;50.198;19.796;2024-01-25T04:31:12;13.30;;;3.30;;
52934;SDS011;38802;50.198;19.796;2024-01-25T04:33:40;7.20;;;3.30;;
52934;SDS011;38802;50.198;19.796;2024-01-25T04:36:13;17.80;;;2.70;;
52934;SDS011;38802;50.198;19.796;2024-01-25T04:38:42;10.50;;;2.80;;
52934;SDS011;38802;50.198;19.796;2024-01-25T04:41:10;8.00;;;2.60;;
52934;SDS011;38802;50.198;19.796;2024-01-25T04:43:38;8.30;;;2.80;;
52934;SDS011;38802;50.198;19.796;2024-01-25T04:46:06;8.70;;;3.20;;
52934;SDS011;38802;50.198;19.796;2024-01-25T04:48:35;7.90;;;2.60;;
52934;SDS011;38802;50.198;19.796;2024-01-25T04:51:03;13.00;;;3.20;;
52934;SDS011;38802;50.198;19.796;2024-01-25T04:53:32;7.60;;;2.40;;
52934;SDS011;38802;50.198;19.796;2024-01-25T04:56:00;9.20;;;2.50;;
52934;SDS011;38802;50.198;19.796;2024-01-25T04:58:28;5.20;;;2.30;;
52934;SDS011;38802;50.198;19.796;2024-01-25T05:00:55;8.50;;;1.90;;
52934;SDS011;38802;50.198;19.796;2024-01-25T05:03:24;16.40;;;2.80;;
52934;SDS011;38802;50.198;19.796;2024-01-25T05:05:52;8.50;;;2.90;;
52934;SDS011;38802;50.198;19.796;2024-01-25T05:08:20;11.20;;;3.00;;
52934;SDS011;38802;50.198;19.796;2024-01-25T05:10:48;9.20;;;3.00;;
52934;SDS011;38802;50.198;19.796;2024-01-25T05:13:16;9.00;;;2.70;;
52934;SDS011;38802;50.198;19.796;2024-01-25T05:15:44;7.30;;;2.80;;
52934;SDS011;38802;50.198;19.796;2024-01-25T05:18:12;8.20;;;2.70;;
52934;SDS011;38802;50.198;19.796;2024-01-25T05:20:40;6.20;;;2.20;;
52934;SDS011;38802;50.198;19.796;2024-01-25T05:23:09;9.40;;;2.20;;
52934;SDS011;38802;50.198;19.796;2024-01-25T05:25:37;11.70;;;2.50;;
52934;SDS011;38802;50.198;19.796;2024-01-25T05:28:05;6.30;;;2.30;;
52934;SDS011;38802;50.198;19.796;2024-01-25T05:30:33;6.40;;;2.50;;
52934;SDS011;38802;50.198;19.796;2024-01-25T05:33:01;7.50;;;3.30;;
52934;SDS011;38802;50.198;19.796;2024-01-25T05:35:30;9.50;;;3.10;;
52934;SDS011;38802;50.198;19.796;2024-01-25T05:37:58;8.10;;;2.60;;
52934;SDS011;38802;50.198;19.796;2024-01-25T05:40:26;5.70;;;2.30;;
52934;SDS011;38802;50.198;19.796;2024-01-25T05:42:54;9.20;;;2.50;;
52934;SDS011;38802;50.198;19.796;2024-01-25T05:45:23;7.40;;;3.80;;
52934;SDS011;38802;50.198;19.796;2024-01-25T05:47:52;8.40;;;2.90;;
52934;SDS011;38802;50.198;19.796;2024-01-25T05:50:20;7.20;;;2.60;;
52934;SDS011;38802;50.198;19.796;2024-01-25T05:52:48;9.90;;;2.90;;
52934;SDS011;38802;50.198;19.796;2024-01-25T05:55:17;10.10;;;3.60;;
52934;SDS011;38802;50.198;19.796;2024-01-25T05:57:45;8.00;;;2.90;;
52934;SDS011;38802;50.198;19.796;2024-01-25T06:00:13;8.40;;;2.40;;
52934;SDS011;38802;50.198;19.796;2024-01-25T06:02:46;7.00;;;2.70;;
52934;SDS011;38802;50.198;19.796;2024-01-25T06:05:15;8.80;;;2.80;;
52934;SDS011;38802;50.198;19.796;2024-01-25T06:07:43;4.60;;;2.40;;
52934;SDS011;38802;50.198;19.796;2024-01-25T06:10:11;9.70;;;3.00;;
52934;SDS011;38802;50.198;19.796;2024-01-25T06:12:39;5.90;;;2.90;;
52934;SDS011;38802;50.198;19.796;2024-01-25T06:15:08;9.80;;;2.50;;
52934;SDS011;38802;50.198;19.796;2024-01-25T06:17:36;10.00;;;2.40;;
52934;SDS011;38802;50.198;19.796;2024-01-25T06:20:04;10.50;;;2.90;;
52934;SDS011;38802;50.198;19.796;2024-01-25T06:22:34;9.30;;;2.50;;
52934;SDS011;38802;50.198;19.796;2024-01-25T06:25:02;9.10;;;2.40;;
52934;SDS011;38802;50.198;19.796;2024-01-25T06:27:34;9.20;;;2.70;;
52934;SDS011;38802;50.198;19.796;2024-01-25T06:30:02;10.80;;;3.70;;
52934;SDS011;38802;50.198;19.796;2024-01-25T06:32:33;7.10;;;2.40;;
52934;SDS011;38802;50.198;19.796;2024-01-25T06:35:01;13.00;;;3.00;;
52934;SDS011;38802;50.198;19.796;2024-01-25T06:37:29;11.90;;;3.40;;
52934;SDS011;38802;50.198;19.796;2024-01-25T06:39:57;12.80;;;4.10;;
52934;SDS011;38802;50.198;19.796;2024-01-25T06:42:26;8.80;;;3.60;;
52934;SDS011;38802;50.198;19.796;2024-01-25T06:44:54;13.80;;;4.00;;
52934;SDS011;38802;50.198;19.796;2024-01-25T06:47:23;10.10;;;3.50;;
52934;SDS011;38802;50.198;19.796;2024-01-25T06:49:51;11.50;;;3.10;;
52934;SDS011;38802;50.198;19.796;2024-01-25T06:52:20;9.50;;;2.80;;
52934;SDS011;38802;50.198;19.796;2024-01-25T06:54:48;11.70;;;2.90;;
52934;SDS011;38802;50.198;19.796;2024-01-25T06:57:17;11.40;;;3.10;;
52934;SDS011;38802;50.198;19.796;2024-01-25T06:59:45;11.80;;;2.70;;
52934;SDS011;38802;50.198;19.796;2024-01-25T07:02:13;9.80;;;2.90;;
52934;SDS011;38802;50.198;19.796;2024-01-25T07:04:42;6.70;;;2.40;;
52934;SDS011;38802;50.198;19.796;2024-01-25T07:07:11;9.70;;;3.40;;
52934;SDS011;38802;50.198;19.796;2024-01-25T07:09:39;11.90;;;2.90;;
52934;SDS011;38802;50.198;19.796;2024-01-25T07:12:07;12.60;;;3.30;;
52934;SDS011;38802;50.198;19.796;2024-01-25T07:14:35;15.30;;;3.10;;
52934;SDS011;38802;50.198;19.796;2024-01-25T07:17:04;11.70;;;3.40;;
52934;SDS011;38802;50.198;19.796;2024-01-25T07:19:32;15.70;;;3.80;;
52934;SDS011;38802;50.198;19.796;2024-01-25T07:22:00;14.70;;;4.20;;
52934;SDS011;38802;50.198;19.796;2024-01-25T07:24:28;12.00;;;4.80;;
52934;SDS011;38802;50.198;19.796;2024-01-25T07:35:36;12.20;;;4.10;;
52934;SDS011;38802;50.198;19.796;2024-01-25T07:38:04;12.80;;;4.60;;
52934;SDS011;38802;50.198;19.796;2024-01-25T07:40:33;21.50;;;3.80;;
52934;SDS011;38802;50.198;19.796;2024-01-25T07:43:01;11.90;;;4.80;;
52934;SDS011;38802;50.198;19.796;2024-01-25T07:45:29;14.70;;;3.60;;
52934;SDS011;38802;50.198;19.796;2024-01-25T07:47:57;7.30;;;2.50;;
52934;SDS011;38802;50.198;19.796;2024-01-25T07:50:38;7.00;;;3.40;;
52934;SDS011;38802;50.198;19.796;2024-01-25T07:53:06;11.60;;;4.40;;
52934;SDS011;38802;50.198;19.796;2024-01-25T07:55:34;6.80;;;2.90;;
52934;SDS011;38802;50.198;19.796;2024-01-25T07:58:03;5.70;;;3.20;;
52934;SDS011;38802;50.198;19.796;2024-01-25T08:00:31;8.40;;;3.40;;
52934;SDS011;38802;50.198;19.796;2024-01-25T08:03:00;11.30;;;4.30;;
52934;SDS011;38802;50.198;19.796;2024-01-25T08:05:28;15.60;;;4.10;;
52934;SDS011;38802;50.198;19.796;2024-01-25T08:08:11;9.10;;;3.70;;
52934;SDS011;38802;50.198;19.796;2024-01-25T08:10:40;13.40;;;4.20;;
52934;SDS011;38802;50.198;19.796;2024-01-25T08:13:09;6.80;;;3.40;;
52934;SDS011;38802;50.198;19.796;2024-01-25T08:15:40;4.80;;;3.30;;
52934;SDS011;38802;50.198;19.796;2024-01-25T08:18:08;8.70;;;2.90;;
52934;SDS011;38802;50.198;19.796;2024-01-25T08:20:37;8.60;;;2.70;;
52934;SDS011;38802;50.198;19.796;2024-01-25T08:23:06;7.90;;;2.60;;
52934;SDS011;38802;50.198;19.796;2024-01-25T08:25:37;5.70;;;3.20;;
52934;SDS011;38802;50.198;19.796;2024-01-25T08:28:05;8.80;;;3.10;;
52934;SDS011;38802;50.198;19.796;2024-01-25T08:30:34;10.50;;;2.80;;
52934;SDS011;38802;50.198;19.796;2024-01-25T08:33:02;6.60;;;3.50;;
52934;SDS011;38802;50.198;19.796;2024-01-25T08:35:31;10.50;;;3.30;;
52934;SDS011;38802;50.198;19.796;2024-01-25T08:37:59;10.10;;;3.00;;
52934;SDS011;38802;50.198;19.796;2024-01-25T08:40:28;10.30;;;3.50;;
52934;SDS011;38802;50.198;19.796;2024-01-25T08:42:57;8.60;;;3.80;;
52934;SDS011;38802;50.198;19.796;2024-01-25T08:45:26;6.70;;;3.20;;
52934;SDS011;38802;50.198;19.796;2024-01-25T08:47:54;9.20;;;4.10;;
52934;SDS011;38802;50.198;19.796;2024-01-25T08:50:23;7.30;;;3.30;;
52934;SDS011;38802;50.198;19.796;2024-01-25T08:52:54;12.00;;;4.20;;
52934;SDS011;38802;50.198;19.796;2024-01-25T08:55:23;11.20;;;3.90;;
52934;SDS011;38802;50.198;19.796;2024-01-25T08:57:51;7.50;;;3.20;;
52934;SDS011;38802;50.198;19.796;2024-01-25T09:00:19;11.40;;;3.80;;
52934;SDS011;38802;50.198;19.796;2024-01-25T09:02:48;9.10;;;3.80;;
52934;SDS011;38802;50.198;19.796;2024-01-25T09:05:16;7.50;;;3.30;;
52934;SDS011;38802;50.198;19.796;2024-01-25T09:07:44;15.30;;;4.00;;
52934;SDS011;38802;50.198;19.796;2024-01-25T09:10:13;15.90;;;4.00;;
52934;SDS011;38802;50.198;19.796;2024-01-25T09:13:01;11.50;;;4.00;;
52934;SDS011;38802;50.198;19.796;2024-01-25T09:15:29;14.00;;;3.80;;
52934;SDS011;38802;50.198;19.796;2024-01-25T09:17:58;14.80;;;4.50;;
52934;SDS011;38802;50.198;19.796;2024-01-25T09:20:26;14.80;;;3.70;;
52934;SDS011;38802;50.198;19.796;2024-01-25T09:22:54;13.80;;;3.80;;
52934;SDS011;38802;50.198;19.796;2024-01-25T09:25:22;12.90;;;3.30;;
52934;SDS011;38802;50.198;19.796;2024-01-25T09:27:52;14.60;;;4.00;;
52934;SDS011;38802;50.198;19.796;2024-01-25T09:30:21;14.00;;;4.00;;
52934;SDS011;38802;50.198;19.796;2024-01-25T09:32:49;11.70;;;5.10;;
52934;SDS011;38802;50.198;19.796;2024-01-25T09:38:01;16.50;;;4.60;;
52934;SDS011;38802;50.198;19.796;2024-01-25T09:40:29;10.00;;;3.60;;
52934;SDS011;38802;50.198;19.796;2024-01-25T09:42:58;13.50;;;4.30;;
52934;SDS011;38802;50.198;19.796;2024-01-25T09:45:26;14.30;;;3.50;;
52934;SDS011;38802;50.198;19.796;2024-01-25T09:48:01;10.80;;;3.80;;
52934;SDS011;38802;50.198;19.796;2024-01-25T09:50:33;16.50;;;4.10;;
52934;SDS011;38802;50.198;19.796;2024-01-25T09:53:02;9.50;;;3.10;;
52934;SDS011;38802;50.198;19.796;2024-01-25T09:55:33;10.20;;;3.10;;
52934;SDS011;38802;50.198;19.796;2024-01-25T09:58:06;13.10;;;3.90;;
52934;SDS011;38802;50.198;19.796;2024-01-25T10:00:35;12.20;;;3.40;;
52934;SDS011;38802;50.198;19.796;2024-01-25T10:03:04;9.90;;;3.10;;
52934;SDS011;38802;50.198;19.796;2024-01-25T10:05:32;12.00;;;4.20;;
52934;SDS011;38802;50.198;19.796;2024-01-25T10:08:01;10.90;;;3.60;;
52934;SDS011;38802;50.198;19.796;2024-01-25T10:10:32;15.10;;;3.50;;
52934;SDS011;38802;50.198;19.796;2024-01-25T10:13:01;12.10;;;3.30;;
52934;SDS011;38802;50.198;19.796;2024-01-25T10:15:29;10.20;;;4.90;;
52934;SDS011;38802;50.198;19.796;2024-01-25T10:17:58;8.60;;;3.80;;
52934;SDS011;38802;50.198;19.796;2024-01-25T10:20:46;9.90;;;4.10;;
52934;SDS011;38802;50.198;19.796;2024-01-25T10:23:14;13.60;;;3.20;;
52934;SDS011;38802;50.198;19.796;2024-01-25T10:25:44;12.10;;;5.70;;
52934;SDS011;38802;50.198;19.796;2024-01-25T10:40:55;14.80;;;4.10;;
52934;SDS011;38802;50.198;19.796;2024-01-25T10:43:25;9.60;;;4.80;;
52934;SDS011;38802;50.198;19.796;2024-01-25T10:45:54;10.20;;;3.30;;
52934;SDS011;38802;50.198;19.796;2024-01-25T10:48:28;11.50;;;4.00;;
52934;SDS011;38802;50.198;19.796;2024-01-25T10:50:59;14.90;;;4.40;;
52934;SDS011;38802;50.198;19.796;2024-01-25T10:53:32;14.60;;;4.40;;
52934;SDS011;38802;50.198;19.796;2024-01-25T10:56:02;11.70;;;3.90;;
52934;SDS011;38802;50.198;19.796;2024-01-25T10:58:31;11.70;;;3.90;;
52934;SDS011;38802;50.198;19.796;2024-01-25T11:01:11;13.00;;;5.20;;
52934;SDS011;38802;50.198;19.796;2024-01-25T11:03:47;16.00;;;4.00;;
52934;SDS011;38802;50.198;19.796;2024-01-25T11:06:16;19.50;;;4.50;;
52934;SDS011;38802;50.198;19.796;2024-01-25T11:08:48;14.80;;;3.80;;
52934;SDS011;38802;50.198;19.796;2024-01-25T11:11:16;13.10;;;3.60;;
52934;SDS011;38802;50.198;19.796;2024-01-25T11:13:47;9.60;;;4.20;;
52934;SDS011;38802;50.198;19.796;2024-01-25T11:16:18;16.30;;;4.80;;
52934;SDS011;38802;50.198;19.796;2024-01-25T11:18:56;8.30;;;4.40;;
52934;SDS011;38802;50.198;19.796;2024-01-25T11:21:44;11.20;;;3.80;;
52934;SDS011;38802;50.198;19.796;2024-01-25T11:24:14;16.20;;;4.60;;
52934;SDS011;38802;50.198;19.796;2024-01-25T11:26:45;16.70;;;3.80;;
52934;SDS011;38802;50.198;19.796;2024-01-25T11:29:17;12.90;;;4.00;;
52934;SDS011;38802;50.198;19.796;2024-01-25T11:31:48;9.20;;;3.40;;
52934;SDS011;38802;50.198;19.796;2024-01-25T11:34:18;13.50;;;4.70;;
52934;SDS011;38802;50.198;19.796;2024-01-25T11:36:47;15.60;;;4.70;;
52934;SDS011;38802;50.198;19.796;2024-01-25T11:39:16;15.00;;;4.80;;
52934;SDS011;38802;50.198;19.796;2024-01-25T11:41:44;15.20;;;4.20;;
52934;SDS011;38802;50.198;19.796;2024-01-25T11:44:13;12.80;;;5.00;;
52934;SDS011;38802;50.198;19.796;2024-01-25T11:46:41;13.90;;;4.70;;
52934;SDS011;38802;50.198;19.796;2024-01-25T11:49:11;18.80;;;5.80;;
52934;SDS011;38802;50.198;19.796;2024-01-25T11:51:39;13.70;;;6.10;;
52934;SDS011;38802;50.198;19.796;2024-01-25T11:54:07;11.70;;;3.70;;
52934;SDS011;38802;50.198;19.796;2024-01-25T11:56:37;17.00;;;5.20;;
52934;SDS011;38802;50.198;19.796;2024-01-25T11:59:09;12.60;;;4.70;;
52934;SDS011;38802;50.198;19.796;2024-01-25T12:01:39;10.40;;;3.80;;
52934;SDS011;38802;50.198;19.796;2024-01-25T12:04:08;10.40;;;3.50;;
52934;SDS011;38802;50.198;19.796;2024-01-25T12:06:37;15.00;;;6.00;;
52934;SDS011;38802;50.198;19.796;2024-01-25T12:09:09;18.10;;;4.50;;
52934;SDS011;38802;50.198;19.796;2024-01-25T12:11:38;12.80;;;5.40;;
52934;SDS011;38802;50.198;19.796;2024-01-25T12:14:09;13.10;;;5.40;;
52934;SDS011;38802;50.198;19.796;2024-01-25T12:16:38;8.40;;;4.80;;
52934;SDS011;38802;50.198;19.796;2024-01-25T12:19:07;16.30;;;6.00;;
52934;SDS011;38802;50.198;19.796;2024-01-25T12:21:35;13.80;;;4.70;;
52934;SDS011;38802;50.198;19.796;2024-01-25T12:24:05;16.20;;;5.90;;
52934;SDS011;38802;50.198;19.796;2024-01-25T12:26:36;15.90;;;4.50;;
52934;SDS011;38802;50.198;19.796;2024-01-25T12:29:05;12.50;;;5.20;;
52934;SDS011;38802;50.198;19.796;2024-01-25T12:31:33;10.60;;;4.30;;
52934;SDS011;38802;50.198;19.796;2024-01-25T12:34:02;12.20;;;4.80;;
52934;SDS011;38802;50.198;19.796;2024-01-25T12:36:31;14.20;;;4.80;;
52934;SDS011;38802;50.198;19.796;2024-01-25T12:39:01;13.60;;;4.50;;
52934;SDS011;38802;50.198;19.796;2024-01-25T12:41:30;12.80;;;5.20;;
52934;SDS011;38802;50.198;19.796;2024-01-25T12:43:59;24.80;;;5.10;;
52934;SDS011;38802;50.198;19.796;2024-01-25T12:46:27;13.30;;;4.50;;
52934;SDS011;38802;50.198;19.796;2024-01-25T12:48:55;17.50;;;5.10;;
52934;SDS011;38802;50.198;19.796;2024-01-25T12:51:26;13.90;;;4.60;;
52934;SDS011;38802;50.198;19.796;2024-01-25T12:53:55;13.10;;;3.50;;
52934;SDS011;38802;50.198;19.796;2024-01-25T12:56:23;13.00;;;3.60;;
52934;SDS011;38802;50.198;19.796;2024-01-25T12:58:51;11.10;;;4.30;;
52934;SDS011;38802;50.198;19.796;2024-01-25T13:01:20;15.20;;;3.20;;
52934;SDS011;38802;50.198;19.796;2024-01-25T13:03:49;12.70;;;3.80;;
52934;SDS011;38802;50.198;19.796;2024-01-25T13:06:17;9.40;;;4.00;;
52934;SDS011;38802;50.198;19.796;2024-01-25T13:08:46;12.70;;;4.30;;
52934;SDS011;38802;50.198;19.796;2024-01-25T13:11:14;8.70;;;4.70;;
52934;SDS011;38802;50.198;19.796;2024-01-25T13:13:42;10.40;;;4.30;;
52934;SDS011;38802;50.198;19.796;2024-01-25T13:16:13;17.00;;;4.40;;
52934;SDS011;38802;50.198;19.796;2024-01-25T13:18:41;10.80;;;4.20;;
52934;SDS011;38802;50.198;19.796;2024-01-25T13:21:10;9.60;;;3.70;;
52934;SDS011;38802;50.198;19.796;2024-01-25T13:23:38;11.50;;;4.00;;
52934;SDS011;38802;50.198;19.796;2024-01-25T13:26:06;10.50;;;3.80;;
52934;SDS011;38802;50.198;19.796;2024-01-25T13:28:35;9.80;;;3.70;;
52934;SDS011;38802;50.198;19.796;2024-01-25T13:31:03;8.40;;;3.40;;
52934;SDS011;38802;50.198;19.796;2024-01-25T13:33:31;10.10;;;3.80;;
52934;SDS011;38802;50.198;19.796;2024-01-25T13:35:59;11.60;;;4.10;;
52934;SDS011;38802;50.198;19.796;2024-01-25T13:38:27;9.10;;;3.90;;
52934;SDS011;38802;50.198;19.796;2024-01-25T13:40:56;13.90;;;4.00;;
52934;SDS011;38802;50.198;19.796;2024-01-25T13:43:25;11.80;;;3.90;;
52934;SDS011;38802;50.198;19.796;2024-01-25T13:45:54;8.30;;;4.80;;
52934;SDS011;38802;50.198;19.796;2024-01-25T13:48:23;15.60;;;4.60;;
52934;SDS011;38802;50.198;19.796;2024-01-25T13:50:51;10.70;;;4.50;;
52934;SDS011;38802;50.198;19.796;2024-01-25T13:53:19;11.70;;;4.90;;
52934;SDS011;38802;50.198;19.796;2024-01-25T13:55:48;16.10;;;5.50;;
52934;SDS011;38802;50.198;19.796;2024-01-25T13:58:15;9.10;;;3.40;;
52934;SDS011;38802;50.198;19.796;2024-01-25T14:00:44;14.50;;;4.70;;
52934;SDS011;38802;50.198;19.796;2024-01-25T14:03:14;16.00;;;4.80;;
52934;SDS011;38802;50.198;19.796;2024-01-25T14:05:45;17.90;;;5.90;;
52934;SDS011;38802;50.198;19.796;2024-01-25T14:08:32;13.00;;;4.60;;
52934;SDS011;38802;50.198;19.796;2024-01-25T14:11:01;11.30;;;5.20;;
52934;SDS011;38802;50.198;19.796;2024-01-25T14:13:29;15.40;;;5.00;;
52934;SDS011;38802;50.198;19.796;2024-01-25T14:15:57;14.70;;;5.80;;
52934;SDS011;38802;50.198;19.796;2024-01-25T14:18:27;15.60;;;5.80;;
52934;SDS011;38802;50.198;19.796;2024-01-25T14:20:58;13.40;;;5.30;;
52934;SDS011;38802;50.198;19.796;2024-01-25T14:23:26;15.20;;;5.00;;
52934;SDS011;38802;50.198;19.796;2024-01-25T14:25:56;13.20;;;5.50;;
52934;SDS011;38802;50.198;19.796;2024-01-25T14:28:24;13.40;;;4.30;;
52934;SDS011;38802;50.198;19.796;2024-01-25T14:30:53;11.30;;;4.90;;
52934;SDS011;38802;50.198;19.796;2024-01-25T14:33:21;17.90;;;5.30;;
52934;SDS011;38802;50.198;19.796;2024-01-25T14:35:50;12.90;;;4.80;;
52934;SDS011;38802;50.198;19.796;2024-01-25T14:38:18;8.70;;;4.40;;
52934;SDS011;38802;50.198;19.796;2024-01-25T14:40:46;17.90;;;4.40;;
52934;SDS011;38802;50.198;19.796;2024-01-25T14:43:26;13.30;;;4.90;;
52934;SDS011;38802;50.198;19.796;2024-01-25T14:45:54;15.10;;;5.70;;
52934;SDS011;38802;50.198;19.796;2024-01-25T14:48:22;17.30;;;5.60;;
52934;SDS011;38802;50.198;19.796;2024-01-25T14:50:50;11.50;;;4.90;;
52934;SDS011;38802;50.198;19.796;2024-01-25T14:53:18;9.80;;;4.20;;
52934;SDS011;38802;50.198;19.796;2024-01-25T14:55:47;13.00;;;5.00;;
52934;SDS011;38802;50.198;19.796;2024-01-25T14:58:15;13.00;;;4.50;;
52934;SDS011;38802;50.198;19.796;2024-01-25T15:00:53;18.60;;;5.80;;
52934;SDS011;38802;50.198;19.796;2024-01-25T15:03:21;13.80;;;4.60;;